sensor_id;sensor_type;location;lat;lon;timestamp;temperature;humidity
74923;HTU21D;64715;44.760;37.678;2022-11-20T00:00:54;13.06;93.28
74923;HTU21D;64715;44.760;37.678;2022-11-20T00:01:55;13.08;93.18
74923;HTU21D;64715;44.760;37.678;2022-11-20T00:02:56;13.09;93.30
74923;HTU21D;64715;44.760;37.678;2022-11-20T00:03:58;13.09;92.96
74923;HTU21D;64715;44.760;37.678;2022-11-20T00:04:59;13.11;93.37
74923;HTU21D;64715;44.760;37.678;2022-11-20T00:06:07;13.15;93.24
74923;HTU21D;64715;44.760;37.678;2022-11-20T00:07:09;13.14;93.16
74923;HTU21D;64715;44.760;37.678;2022-11-20T00:08:10;13.16;93.26
74923;HTU21D;64715;44.760;37.678;2022-11-20T00:09:11;13.15;93.19
74923;HTU21D;64715;44.760;37.678;2022-11-20T00:10:12;13.16;93.38
74923;HTU21D;64715;44.760;37.678;2022-11-20T00:11:19;13.16;93.29
74923;HTU21D;64715;44.760;37.678;2022-11-20T00:12:20;13.17;93.37
74923;HTU21D;64715;44.760;37.678;2022-11-20T00:13:21;13.19;93.41
74923;HTU21D;64715;44.760;37.678;2022-11-20T00:14:22;13.19;92.97
74923;HTU21D;64715;44.760;37.678;2022-11-20T00:15:23;13.18;93.37
74923;HTU21D;64715;44.760;37.678;2022-11-20T00:16:27;13.19;93.24
74923;HTU21D;64715;44.760;37.678;2022-11-20T00:17:28;13.22;93.34
74923;HTU21D;64715;44.760;37.678;2022-11-20T00:18:30;13.25;93.41
74923;HTU21D;64715;44.760;37.678;2022-11-20T00:19:31;13.27;93.33
74923;HTU21D;64715;44.760;37.678;2022-11-20T00:20:32;13.29;93.49
74923;HTU21D;64715;44.760;37.678;2022-11-20T00:21:33;13.32;93.62
74923;HTU21D;64715;44.760;37.678;2022-11-20T00:22:35;13.34;93.54
74923;HTU21D;64715;44.760;37.678;2022-11-20T00:23:36;13.36;93.46
74923;HTU21D;64715;44.760;37.678;2022-11-20T00:24:37;13.39;93.44
74923;HTU21D;64715;44.760;37.678;2022-11-20T00:25:38;13.43;93.62
74923;HTU21D;64715;44.760;37.678;2022-11-20T00:26:39;13.44;93.53
74923;HTU21D;64715;44.760;37.678;2022-11-20T00:27:40;13.45;93.58
74923;HTU21D;64715;44.760;37.678;2022-11-20T00:28:43;13.49;93.68
74923;HTU21D;64715;44.760;37.678;2022-11-20T00:29:44;13.49;93.77
74923;HTU21D;64715;44.760;37.678;2022-11-20T00:30:45;13.51;93.70
74923;HTU21D;64715;44.760;37.678;2022-11-20T00:31:46;13.54;93.55
74923;HTU21D;64715;44.760;37.678;2022-11-20T00:32:47;13.56;93.77
74923;HTU21D;64715;44.760;37.678;2022-11-20T00:33:48;13.58;93.72
74923;HTU21D;64715;44.760;37.678;2022-11-20T00:34:49;13.59;93.56
74923;HTU21D;64715;44.760;37.678;2022-11-20T00:35:50;13.60;93.53
74923;HTU21D;64715;44.760;37.678;2022-11-20T00:36:51;13.61;93.50
74923;HTU21D;64715;44.760;37.678;2022-11-20T00:37:52;13.64;93.66
74923;HTU21D;64715;44.760;37.678;2022-11-20T00:38:54;13.65;93.40
74923;HTU21D;64715;44.760;37.678;2022-11-20T00:39:56;13.65;93.62
74923;HTU21D;64715;44.760;37.678;2022-11-20T00:40:58;13.67;93.66
74923;HTU21D;64715;44.760;37.678;2022-11-20T00:41:59;13.70;93.34
74923;HTU21D;64715;44.760;37.678;2022-11-20T00:43:00;13.70;93.56
74923;HTU21D;64715;44.760;37.678;2022-11-20T00:44:01;13.71;93.71
74923;HTU21D;64715;44.760;37.678;2022-11-20T00:45:02;13.76;93.62
74923;HTU21D;64715;44.760;37.678;2022-11-20T00:46:09;13.77;93.60
74923;HTU21D;64715;44.760;37.678;2022-11-20T00:47:10;13.77;93.49
74923;HTU21D;64715;44.760;37.678;2022-11-20T00:48:11;13.80;93.53
74923;HTU21D;64715;44.760;37.678;2022-11-20T00:49:12;13.82;93.46
74923;HTU21D;64715;44.760;37.678;2022-11-20T00:50:13;13.82;93.44
74923;HTU21D;64715;44.760;37.678;2022-11-20T00:51:19;13.84;93.24
74923;HTU21D;64715;44.760;37.678;2022-11-20T00:52:20;13.84;93.40
74923;HTU21D;64715;44.760;37.678;2022-11-20T00:53:21;13.85;93.32
74923;HTU21D;64715;44.760;37.678;2022-11-20T00:54:22;13.85;93.32
74923;HTU21D;64715;44.760;37.678;2022-11-20T00:55:23;13.89;93.40
74923;HTU21D;64715;44.760;37.678;2022-11-20T00:56:24;13.90;93.30
74923;HTU21D;64715;44.760;37.678;2022-11-20T00:57:25;13.92;93.30
74923;HTU21D;64715;44.760;37.678;2022-11-20T00:58:47;13.94;93.31
74923;HTU21D;64715;44.760;37.678;2022-11-20T00:59:48;13.93;93.56
74923;HTU21D;64715;44.760;37.678;2022-11-20T01:00:49;13.97;93.21
74923;HTU21D;64715;44.760;37.678;2022-11-20T01:01:50;13.97;93.34
74923;HTU21D;64715;44.760;37.678;2022-11-20T01:02:51;13.98;93.34
74923;HTU21D;64715;44.760;37.678;2022-11-20T01:03:53;13.99;93.48
74923;HTU21D;64715;44.760;37.678;2022-11-20T01:04:55;13.98;93.10
74923;HTU21D;64715;44.760;37.678;2022-11-20T01:06:00;14.00;93.33
74923;HTU21D;64715;44.760;37.678;2022-11-20T01:07:01;13.99;93.60
74923;HTU21D;64715;44.760;37.678;2022-11-20T01:08:02;14.01;93.50
74923;HTU21D;64715;44.760;37.678;2022-11-20T01:09:11;14.03;93.22
74923;HTU21D;64715;44.760;37.678;2022-11-20T01:10:13;14.01;93.47
74923;HTU21D;64715;44.760;37.678;2022-11-20T01:11:19;14.03;93.06
74923;HTU21D;64715;44.760;37.678;2022-11-20T01:12:20;14.04;93.11
74923;HTU21D;64715;44.760;37.678;2022-11-20T01:13:21;14.04;93.15
74923;HTU21D;64715;44.760;37.678;2022-11-20T01:14:37;14.05;93.14
74923;HTU21D;64715;44.760;37.678;2022-11-20T01:15:38;14.05;93.14
74923;HTU21D;64715;44.760;37.678;2022-11-20T01:16:44;14.05;93.09
74923;HTU21D;64715;44.760;37.678;2022-11-20T01:17:45;14.06;93.11
74923;HTU21D;64715;44.760;37.678;2022-11-20T01:18:49;14.07;92.94
74923;HTU21D;64715;44.760;37.678;2022-11-20T01:19:50;14.08;93.12
74923;HTU21D;64715;44.760;37.678;2022-11-20T01:20:51;14.08;93.04
74923;HTU21D;64715;44.760;37.678;2022-11-20T01:21:54;14.09;93.26
74923;HTU21D;64715;44.760;37.678;2022-11-20T01:22:55;14.10;92.95
74923;HTU21D;64715;44.760;37.678;2022-11-20T01:23:56;14.09;93.11
74923;HTU21D;64715;44.760;37.678;2022-11-20T01:24:57;14.10;92.96
74923;HTU21D;64715;44.760;37.678;2022-11-20T01:26:07;14.11;92.66
74923;HTU21D;64715;44.760;37.678;2022-11-20T01:27:09;14.10;92.64
74923;HTU21D;64715;44.760;37.678;2022-11-20T01:28:10;14.09;92.62
74923;HTU21D;64715;44.760;37.678;2022-11-20T01:29:20;14.07;92.57
74923;HTU21D;64715;44.760;37.678;2022-11-20T01:30:21;14.07;92.29
74923;HTU21D;64715;44.760;37.678;2022-11-20T01:31:25;14.07;92.34
74923;HTU21D;64715;44.760;37.678;2022-11-20T01:32:26;14.07;92.35
74923;HTU21D;64715;44.760;37.678;2022-11-20T01:33:27;14.03;92.39
74923;HTU21D;64715;44.760;37.678;2022-11-20T01:34:28;14.04;92.31
74923;HTU21D;64715;44.760;37.678;2022-11-20T01:35:29;14.01;92.24
74923;HTU21D;64715;44.760;37.678;2022-11-20T01:36:32;14.01;92.11
74923;HTU21D;64715;44.760;37.678;2022-11-20T01:37:33;14.01;92.09
74923;HTU21D;64715;44.760;37.678;2022-11-20T01:38:34;13.99;92.24
74923;HTU21D;64715;44.760;37.678;2022-11-20T01:39:35;13.98;92.09
74923;HTU21D;64715;44.760;37.678;2022-11-20T01:40:36;13.97;92.21
74923;HTU21D;64715;44.760;37.678;2022-11-20T01:41:37;13.97;92.19
74923;HTU21D;64715;44.760;37.678;2022-11-20T01:43:18;13.95;92.16
74923;HTU21D;64715;44.760;37.678;2022-11-20T01:44:48;13.94;92.14
74923;HTU21D;64715;44.760;37.678;2022-11-20T01:46:15;13.91;92.46
74923;HTU21D;64715;44.760;37.678;2022-11-20T01:47:45;13.90;92.46
74923;HTU21D;64715;44.760;37.678;2022-11-20T01:48:52;13.89;92.31
74923;HTU21D;64715;44.760;37.678;2022-11-20T01:50:05;13.90;92.34
74923;HTU21D;64715;44.760;37.678;2022-11-20T01:51:15;13.88;92.72
74923;HTU21D;64715;44.760;37.678;2022-11-20T01:52:21;13.86;92.54
74923;HTU21D;64715;44.760;37.678;2022-11-20T01:53:26;13.89;92.49
74923;HTU21D;64715;44.760;37.678;2022-11-20T01:54:35;13.88;92.51
74923;HTU21D;64715;44.760;37.678;2022-11-20T01:55:41;13.86;92.79
74923;HTU21D;64715;44.760;37.678;2022-11-20T01:56:45;13.88;92.66
74923;HTU21D;64715;44.760;37.678;2022-11-20T01:57:48;13.86;92.70
74923;HTU21D;64715;44.760;37.678;2022-11-20T01:58:52;13.89;92.66
74923;HTU21D;64715;44.760;37.678;2022-11-20T01:59:59;13.89;92.72
74923;HTU21D;64715;44.760;37.678;2022-11-20T02:01:01;13.90;92.68
74923;HTU21D;64715;44.760;37.678;2022-11-20T02:02:03;13.90;92.67
74923;HTU21D;64715;44.760;37.678;2022-11-20T02:03:11;13.91;92.68
74923;HTU21D;64715;44.760;37.678;2022-11-20T02:04:15;13.90;92.81
74923;HTU21D;64715;44.760;37.678;2022-11-20T02:05:36;13.91;92.82
74923;HTU21D;64715;44.760;37.678;2022-11-20T02:06:59;13.92;92.80
74923;HTU21D;64715;44.760;37.678;2022-11-20T02:08:02;13.91;92.75
74923;HTU21D;64715;44.760;37.678;2022-11-20T02:09:04;13.89;92.56
74923;HTU21D;64715;44.760;37.678;2022-11-20T02:10:05;13.89;92.46
74923;HTU21D;64715;44.760;37.678;2022-11-20T02:11:07;13.90;92.57
74923;HTU21D;64715;44.760;37.678;2022-11-20T02:12:08;13.90;92.33
74923;HTU21D;64715;44.760;37.678;2022-11-20T02:13:29;13.90;92.33
74923;HTU21D;64715;44.760;37.678;2022-11-20T02:14:45;13.88;92.44
74923;HTU21D;64715;44.760;37.678;2022-11-20T02:15:46;13.88;92.26
74923;HTU21D;64715;44.760;37.678;2022-11-20T02:16:48;13.86;92.50
74923;HTU21D;64715;44.760;37.678;2022-11-20T02:17:50;13.85;92.43
74923;HTU21D;64715;44.760;37.678;2022-11-20T02:18:52;13.84;92.65
74923;HTU21D;64715;44.760;37.678;2022-11-20T02:19:54;13.85;92.46
74923;HTU21D;64715;44.760;37.678;2022-11-20T02:22:50;13.88;92.58
74923;HTU21D;64715;44.760;37.678;2022-11-20T02:25:06;13.88;92.54
74923;HTU21D;64715;44.760;37.678;2022-11-20T02:26:12;13.88;92.51
74923;HTU21D;64715;44.760;37.678;2022-11-20T02:27:15;13.91;92.59
74923;HTU21D;64715;44.760;37.678;2022-11-20T02:28:17;13.90;93.02
74923;HTU21D;64715;44.760;37.678;2022-11-20T02:29:46;13.90;92.88
74923;HTU21D;64715;44.760;37.678;2022-11-20T02:30:48;13.92;92.82
74923;HTU21D;64715;44.760;37.678;2022-11-20T02:31:49;13.93;92.86
74923;HTU21D;64715;44.760;37.678;2022-11-20T02:32:51;13.94;93.04
74923;HTU21D;64715;44.760;37.678;2022-11-20T02:33:56;13.96;92.89
74923;HTU21D;64715;44.760;37.678;2022-11-20T02:34:58;13.98;93.00
74923;HTU21D;64715;44.760;37.678;2022-11-20T02:36:08;14.01;92.97
74923;HTU21D;64715;44.760;37.678;2022-11-20T02:37:12;14.03;92.91
74923;HTU21D;64715;44.760;37.678;2022-11-20T02:38:14;14.05;93.11
74923;HTU21D;64715;44.760;37.678;2022-11-20T02:39:15;14.07;93.04
74923;HTU21D;64715;44.760;37.678;2022-11-20T02:40:19;14.07;92.98
74923;HTU21D;64715;44.760;37.678;2022-11-20T02:41:20;14.09;93.39
74923;HTU21D;64715;44.760;37.678;2022-11-20T02:42:21;14.09;93.02
74923;HTU21D;64715;44.760;37.678;2022-11-20T02:43:23;14.11;93.06
74923;HTU21D;64715;44.760;37.678;2022-11-20T02:44:24;14.12;92.86
74923;HTU21D;64715;44.760;37.678;2022-11-20T02:45:25;14.12;93.03
74923;HTU21D;64715;44.760;37.678;2022-11-20T02:46:26;14.13;93.04
74923;HTU21D;64715;44.760;37.678;2022-11-20T02:47:27;14.14;92.78
74923;HTU21D;64715;44.760;37.678;2022-11-20T02:48:28;14.14;92.85
74923;HTU21D;64715;44.760;37.678;2022-11-20T02:49:29;14.17;92.81
74923;HTU21D;64715;44.760;37.678;2022-11-20T02:50:30;14.17;92.94
74923;HTU21D;64715;44.760;37.678;2022-11-20T02:51:31;14.17;93.03
74923;HTU21D;64715;44.760;37.678;2022-11-20T02:52:32;14.19;92.66
74923;HTU21D;64715;44.760;37.678;2022-11-20T02:53:33;14.20;92.82
74923;HTU21D;64715;44.760;37.678;2022-11-20T02:54:34;14.20;92.75
74923;HTU21D;64715;44.760;37.678;2022-11-20T02:55:35;14.22;92.98
74923;HTU21D;64715;44.760;37.678;2022-11-20T02:56:38;14.23;92.53
74923;HTU21D;64715;44.760;37.678;2022-11-20T02:57:39;14.23;92.75
74923;HTU21D;64715;44.760;37.678;2022-11-20T02:58:40;14.26;93.04
74923;HTU21D;64715;44.760;37.678;2022-11-20T02:59:41;14.27;92.69
74923;HTU21D;64715;44.760;37.678;2022-11-20T03:00:42;14.28;92.78
74923;HTU21D;64715;44.760;37.678;2022-11-20T03:01:43;14.28;92.78
74923;HTU21D;64715;44.760;37.678;2022-11-20T03:02:44;14.30;92.79
74923;HTU21D;64715;44.760;37.678;2022-11-20T03:03:45;14.32;92.75
74923;HTU21D;64715;44.760;37.678;2022-11-20T03:04:49;14.30;92.73
74923;HTU21D;64715;44.760;37.678;2022-11-20T03:05:50;14.34;92.85
74923;HTU21D;64715;44.760;37.678;2022-11-20T03:06:50;14.33;92.89
74923;HTU21D;64715;44.760;37.678;2022-11-20T03:07:51;14.36;93.07
74923;HTU21D;64715;44.760;37.678;2022-11-20T03:08:53;14.38;93.04
74923;HTU21D;64715;44.760;37.678;2022-11-20T03:09:54;14.40;93.09
74923;HTU21D;64715;44.760;37.678;2022-11-20T03:10:55;14.40;93.01
74923;HTU21D;64715;44.760;37.678;2022-11-20T03:11:56;14.44;92.69
74923;HTU21D;64715;44.760;37.678;2022-11-20T03:12:57;14.45;92.70
74923;HTU21D;64715;44.760;37.678;2022-11-20T03:14:01;14.47;93.06
74923;HTU21D;64715;44.760;37.678;2022-11-20T03:15:03;14.49;93.17
74923;HTU21D;64715;44.760;37.678;2022-11-20T03:16:09;14.50;92.97
74923;HTU21D;64715;44.760;37.678;2022-11-20T03:17:12;14.48;93.12
74923;HTU21D;64715;44.760;37.678;2022-11-20T03:18:13;14.48;92.79
74923;HTU21D;64715;44.760;37.678;2022-11-20T03:19:14;14.45;92.76
74923;HTU21D;64715;44.760;37.678;2022-11-20T03:20:15;14.47;92.88
74923;HTU21D;64715;44.760;37.678;2022-11-20T03:21:16;14.47;92.56
74923;HTU21D;64715;44.760;37.678;2022-11-20T03:22:17;14.47;92.81
74923;HTU21D;64715;44.760;37.678;2022-11-20T03:23:18;14.47;92.67
74923;HTU21D;64715;44.760;37.678;2022-11-20T03:24:19;14.48;92.71
74923;HTU21D;64715;44.760;37.678;2022-11-20T03:25:21;14.47;92.53
74923;HTU21D;64715;44.760;37.678;2022-11-20T03:26:24;14.48;92.68
74923;HTU21D;64715;44.760;37.678;2022-11-20T03:27:26;14.48;92.50
74923;HTU21D;64715;44.760;37.678;2022-11-20T03:28:27;14.48;92.61
74923;HTU21D;64715;44.760;37.678;2022-11-20T03:29:27;14.47;92.24
74923;HTU21D;64715;44.760;37.678;2022-11-20T03:30:28;14.44;92.61
74923;HTU21D;64715;44.760;37.678;2022-11-20T03:31:40;14.45;92.55
74923;HTU21D;64715;44.760;37.678;2022-11-20T03:32:41;14.48;92.53
74923;HTU21D;64715;44.760;37.678;2022-11-20T03:33:43;14.47;92.49
74923;HTU21D;64715;44.760;37.678;2022-11-20T03:34:45;14.45;92.53
74923;HTU21D;64715;44.760;37.678;2022-11-20T03:35:46;14.45;92.41
74923;HTU21D;64715;44.760;37.678;2022-11-20T03:36:47;14.44;92.27
74923;HTU21D;64715;44.760;37.678;2022-11-20T03:37:48;14.45;92.59
74923;HTU21D;64715;44.760;37.678;2022-11-20T03:38:49;14.47;92.71
74923;HTU21D;64715;44.760;37.678;2022-11-20T03:39:50;14.45;92.53
74923;HTU21D;64715;44.760;37.678;2022-11-20T03:40:51;14.49;92.67
74923;HTU21D;64715;44.760;37.678;2022-11-20T03:41:58;14.50;92.50
74923;HTU21D;64715;44.760;37.678;2022-11-20T03:42:59;14.51;92.75
74923;HTU21D;64715;44.760;37.678;2022-11-20T03:44:02;14.52;92.86
74923;HTU21D;64715;44.760;37.678;2022-11-20T03:45:04;14.53;92.86
74923;HTU21D;64715;44.760;37.678;2022-11-20T03:46:06;14.55;93.01
74923;HTU21D;64715;44.760;37.678;2022-11-20T03:47:07;14.57;92.82
74923;HTU21D;64715;44.760;37.678;2022-11-20T03:48:08;14.59;92.82
74923;HTU21D;64715;44.760;37.678;2022-11-20T03:49:09;14.59;93.07
74923;HTU21D;64715;44.760;37.678;2022-11-20T03:50:11;14.64;92.74
74923;HTU21D;64715;44.760;37.678;2022-11-20T03:51:18;14.65;93.07
74923;HTU21D;64715;44.760;37.678;2022-11-20T03:52:19;14.67;93.30
74923;HTU21D;64715;44.760;37.678;2022-11-20T03:53:20;14.68;92.98
74923;HTU21D;64715;44.760;37.678;2022-11-20T03:54:21;14.70;93.23
74923;HTU21D;64715;44.760;37.678;2022-11-20T03:55:22;14.72;93.24
74923;HTU21D;64715;44.760;37.678;2022-11-20T03:56:26;14.74;93.15
74923;HTU21D;64715;44.760;37.678;2022-11-20T03:57:28;14.78;93.38
74923;HTU21D;64715;44.760;37.678;2022-11-20T03:58:28;14.79;93.05
74923;HTU21D;64715;44.760;37.678;2022-11-20T03:59:30;14.80;93.24
74923;HTU21D;64715;44.760;37.678;2022-11-20T04:00:31;14.82;92.87
74923;HTU21D;64715;44.760;37.678;2022-11-20T04:01:34;14.84;93.24
74923;HTU21D;64715;44.760;37.678;2022-11-20T04:02:36;14.86;93.28
74923;HTU21D;64715;44.760;37.678;2022-11-20T04:03:38;14.89;93.19
74923;HTU21D;64715;44.760;37.678;2022-11-20T04:04:39;14.89;93.42
74923;HTU21D;64715;44.760;37.678;2022-11-20T04:05:40;14.91;93.04
74923;HTU21D;64715;44.760;37.678;2022-11-20T04:06:41;14.92;93.46
74923;HTU21D;64715;44.760;37.678;2022-11-20T04:07:45;14.93;93.13
74923;HTU21D;64715;44.760;37.678;2022-11-20T04:08:46;14.95;93.23
74923;HTU21D;64715;44.760;37.678;2022-11-20T04:09:47;14.95;93.11
74923;HTU21D;64715;44.760;37.678;2022-11-20T04:10:48;14.96;93.50
74923;HTU21D;64715;44.760;37.678;2022-11-20T04:11:49;14.99;93.60
74923;HTU21D;64715;44.760;37.678;2022-11-20T04:12:50;15.00;93.21
74923;HTU21D;64715;44.760;37.678;2022-11-20T04:13:54;15.02;93.30
74923;HTU21D;64715;44.760;37.678;2022-11-20T04:14:55;15.03;93.43
74923;HTU21D;64715;44.760;37.678;2022-11-20T04:15:58;15.07;93.37
74923;HTU21D;64715;44.760;37.678;2022-11-20T04:16:59;15.08;93.42
74923;HTU21D;64715;44.760;37.678;2022-11-20T04:18:00;15.10;93.24
74923;HTU21D;64715;44.760;37.678;2022-11-20T04:19:03;15.13;93.51
74923;HTU21D;64715;44.760;37.678;2022-11-20T04:20:05;15.13;93.25
74923;HTU21D;64715;44.760;37.678;2022-11-20T04:21:07;15.14;93.44
74923;HTU21D;64715;44.760;37.678;2022-11-20T04:22:08;15.15;93.37
74923;HTU21D;64715;44.760;37.678;2022-11-20T04:23:09;15.18;93.63
74923;HTU21D;64715;44.760;37.678;2022-11-20T04:24:11;15.19;93.45
74923;HTU21D;64715;44.760;37.678;2022-11-20T04:25:12;15.23;93.33
74923;HTU21D;64715;44.760;37.678;2022-11-20T04:26:13;15.25;93.28
74923;HTU21D;64715;44.760;37.678;2022-11-20T04:27:14;15.25;93.21
74923;HTU21D;64715;44.760;37.678;2022-11-20T04:28:15;15.26;93.30
74923;HTU21D;64715;44.760;37.678;2022-11-20T04:29:16;15.27;93.27
74923;HTU21D;64715;44.760;37.678;2022-11-20T04:30:18;15.27;93.19
74923;HTU21D;64715;44.760;37.678;2022-11-20T04:31:21;15.29;93.00
74923;HTU21D;64715;44.760;37.678;2022-11-20T04:32:23;15.29;93.08
74923;HTU21D;64715;44.760;37.678;2022-11-20T04:33:23;15.30;93.09
74923;HTU21D;64715;44.760;37.678;2022-11-20T04:34:24;15.32;93.22
74923;HTU21D;64715;44.760;37.678;2022-11-20T04:35:25;15.30;92.94
74923;HTU21D;64715;44.760;37.678;2022-11-20T04:36:28;15.31;93.04
74923;HTU21D;64715;44.760;37.678;2022-11-20T04:37:29;15.33;93.04
74923;HTU21D;64715;44.760;37.678;2022-11-20T04:38:30;15.36;93.02
74923;HTU21D;64715;44.760;37.678;2022-11-20T04:39:31;15.36;92.84
74923;HTU21D;64715;44.760;37.678;2022-11-20T04:40:32;15.38;92.94
74923;HTU21D;64715;44.760;37.678;2022-11-20T04:41:36;15.40;92.94
74923;HTU21D;64715;44.760;37.678;2022-11-20T04:42:37;15.40;93.05
74923;HTU21D;64715;44.760;37.678;2022-11-20T04:43:38;15.41;93.16
74923;HTU21D;64715;44.760;37.678;2022-11-20T04:44:39;15.40;92.87
74923;HTU21D;64715;44.760;37.678;2022-11-20T04:45:40;15.41;92.72
74923;HTU21D;64715;44.760;37.678;2022-11-20T04:46:42;15.42;92.69
74923;HTU21D;64715;44.760;37.678;2022-11-20T04:47:43;15.42;92.96
74923;HTU21D;64715;44.760;37.678;2022-11-20T04:48:44;15.44;92.85
74923;HTU21D;64715;44.760;37.678;2022-11-20T04:49:45;15.43;92.63
74923;HTU21D;64715;44.760;37.678;2022-11-20T04:50:46;15.44;92.60
74923;HTU21D;64715;44.760;37.678;2022-11-20T04:51:46;15.46;92.66
74923;HTU21D;64715;44.760;37.678;2022-11-20T04:52:47;15.47;92.56
74923;HTU21D;64715;44.760;37.678;2022-11-20T04:53:48;15.47;92.50
74923;HTU21D;64715;44.760;37.678;2022-11-20T04:54:49;15.49;92.63
74923;HTU21D;64715;44.760;37.678;2022-11-20T04:56:02;15.47;92.66
74923;HTU21D;64715;44.760;37.678;2022-11-20T04:57:04;15.49;92.72
74923;HTU21D;64715;44.760;37.678;2022-11-20T04:58:05;15.51;92.36
74923;HTU21D;64715;44.760;37.678;2022-11-20T04:59:06;15.51;92.54
74923;HTU21D;64715;44.760;37.678;2022-11-20T05:00:08;15.52;92.53
74923;HTU21D;64715;44.760;37.678;2022-11-20T05:01:14;15.53;92.47
74923;HTU21D;64715;44.760;37.678;2022-11-20T05:02:16;15.54;92.37
74923;HTU21D;64715;44.760;37.678;2022-11-20T05:03:16;15.53;92.26
74923;HTU21D;64715;44.760;37.678;2022-11-20T05:04:18;15.54;92.25
74923;HTU21D;64715;44.760;37.678;2022-11-20T05:05:19;15.55;92.56
74923;HTU21D;64715;44.760;37.678;2022-11-20T05:06:22;15.56;92.26
74923;HTU21D;64715;44.760;37.678;2022-11-20T05:07:23;15.55;92.37
74923;HTU21D;64715;44.760;37.678;2022-11-20T05:08:24;15.58;92.41
74923;HTU21D;64715;44.760;37.678;2022-11-20T05:09:25;15.57;92.59
74923;HTU21D;64715;44.760;37.678;2022-11-20T05:10:26;15.59;92.31
74923;HTU21D;64715;44.760;37.678;2022-11-20T05:11:28;15.59;92.43
74923;HTU21D;64715;44.760;37.678;2022-11-20T05:12:29;15.58;92.33
74923;HTU21D;64715;44.760;37.678;2022-11-20T05:13:30;15.59;92.41
74923;HTU21D;64715;44.760;37.678;2022-11-20T05:14:31;15.60;92.18
74923;HTU21D;64715;44.760;37.678;2022-11-20T05:15:32;15.61;92.08
74923;HTU21D;64715;44.760;37.678;2022-11-20T05:16:34;15.65;92.03
74923;HTU21D;64715;44.760;37.678;2022-11-20T05:17:35;15.61;92.26
74923;HTU21D;64715;44.760;37.678;2022-11-20T05:18:36;15.63;92.27
74923;HTU21D;64715;44.760;37.678;2022-11-20T05:19:39;15.63;92.17
74923;HTU21D;64715;44.760;37.678;2022-11-20T05:20:40;15.62;92.01
74923;HTU21D;64715;44.760;37.678;2022-11-20T05:21:41;15.65;92.14
74923;HTU21D;64715;44.760;37.678;2022-11-20T05:22:42;15.63;92.08
74923;HTU21D;64715;44.760;37.678;2022-11-20T05:23:44;15.65;91.75
74923;HTU21D;64715;44.760;37.678;2022-11-20T05:24:45;15.65;92.14
74923;HTU21D;64715;44.760;37.678;2022-11-20T05:25:46;15.65;91.88
74923;HTU21D;64715;44.760;37.678;2022-11-20T05:26:47;15.67;91.99
74923;HTU21D;64715;44.760;37.678;2022-11-20T05:27:49;15.66;91.92
74923;HTU21D;64715;44.760;37.678;2022-11-20T05:28:50;15.66;91.92
74923;HTU21D;64715;44.760;37.678;2022-11-20T05:29:51;15.65;91.55
74923;HTU21D;64715;44.760;37.678;2022-11-20T05:30:52;15.63;91.62
74923;HTU21D;64715;44.760;37.678;2022-11-20T05:31:53;15.66;91.75
74923;HTU21D;64715;44.760;37.678;2022-11-20T05:32:54;15.65;91.80
74923;HTU21D;64715;44.760;37.678;2022-11-20T05:33:56;15.66;91.47
74923;HTU21D;64715;44.760;37.678;2022-11-20T05:34:57;15.66;91.53
74923;HTU21D;64715;44.760;37.678;2022-11-20T05:35:59;15.65;91.69
74923;HTU21D;64715;44.760;37.678;2022-11-20T05:37:00;15.66;91.35
74923;HTU21D;64715;44.760;37.678;2022-11-20T05:38:11;15.67;91.39
74923;HTU21D;64715;44.760;37.678;2022-11-20T05:39:13;15.65;91.55
74923;HTU21D;64715;44.760;37.678;2022-11-20T05:40:14;15.65;91.11
74923;HTU21D;64715;44.760;37.678;2022-11-20T05:41:20;15.65;91.34
74923;HTU21D;64715;44.760;37.678;2022-11-20T05:42:23;15.65;91.33
74923;HTU21D;64715;44.760;37.678;2022-11-20T05:43:41;15.63;91.14
74923;HTU21D;64715;44.760;37.678;2022-11-20T05:44:49;15.63;91.29
74923;HTU21D;64715;44.760;37.678;2022-11-20T05:46:20;15.62;91.43
74923;HTU21D;64715;44.760;37.678;2022-11-20T05:47:43;15.60;91.04
74923;HTU21D;64715;44.760;37.678;2022-11-20T05:48:46;15.60;91.23
74923;HTU21D;64715;44.760;37.678;2022-11-20T05:49:47;15.61;91.37
74923;HTU21D;64715;44.760;37.678;2022-11-20T05:50:51;15.62;91.30
74923;HTU21D;64715;44.760;37.678;2022-11-20T05:51:55;15.61;91.31
74923;HTU21D;64715;44.760;37.678;2022-11-20T05:52:59;15.61;91.30
74923;HTU21D;64715;44.760;37.678;2022-11-20T05:54:01;15.62;91.16
74923;HTU21D;64715;44.760;37.678;2022-11-20T05:55:02;15.62;91.24
74923;HTU21D;64715;44.760;37.678;2022-11-20T05:56:08;15.65;91.22
74923;HTU21D;64715;44.760;37.678;2022-11-20T05:57:11;15.65;91.30
74923;HTU21D;64715;44.760;37.678;2022-11-20T05:58:12;15.66;91.18
74923;HTU21D;64715;44.760;37.678;2022-11-20T05:59:13;15.66;91.37
74923;HTU21D;64715;44.760;37.678;2022-11-20T06:00:14;15.68;91.31
74923;HTU21D;64715;44.760;37.678;2022-11-20T06:01:19;15.69;91.37
74923;HTU21D;64715;44.760;37.678;2022-11-20T06:02:20;15.69;91.18
74923;HTU21D;64715;44.760;37.678;2022-11-20T06:03:21;15.72;91.08
74923;HTU21D;64715;44.760;37.678;2022-11-20T06:04:25;15.72;91.30
74923;HTU21D;64715;44.760;37.678;2022-11-20T06:05:26;15.73;91.12
74923;HTU21D;64715;44.760;37.678;2022-11-20T06:06:27;15.74;91.12
74923;HTU21D;64715;44.760;37.678;2022-11-20T06:07:28;15.75;90.95
74923;HTU21D;64715;44.760;37.678;2022-11-20T06:08:29;15.75;91.08
74923;HTU21D;64715;44.760;37.678;2022-11-20T06:09:30;15.77;90.94
74923;HTU21D;64715;44.760;37.678;2022-11-20T06:10:31;15.76;91.32
74923;HTU21D;64715;44.760;37.678;2022-11-20T06:11:32;15.78;90.99
74923;HTU21D;64715;44.760;37.678;2022-11-20T06:12:33;15.78;90.80
74923;HTU21D;64715;44.760;37.678;2022-11-20T06:13:34;15.81;90.79
74923;HTU21D;64715;44.760;37.678;2022-11-20T06:14:35;15.77;90.60
74923;HTU21D;64715;44.760;37.678;2022-11-20T06:15:36;15.80;90.63
74923;HTU21D;64715;44.760;37.678;2022-11-20T06:16:37;15.80;90.85
74923;HTU21D;64715;44.760;37.678;2022-11-20T06:17:38;15.78;90.69
74923;HTU21D;64715;44.760;37.678;2022-11-20T06:18:39;15.78;90.81
74923;HTU21D;64715;44.760;37.678;2022-11-20T06:19:40;15.78;90.84
74923;HTU21D;64715;44.760;37.678;2022-11-20T06:20:41;15.78;90.76
74923;HTU21D;64715;44.760;37.678;2022-11-20T06:21:42;15.76;90.63
74923;HTU21D;64715;44.760;37.678;2022-11-20T06:22:43;15.77;90.75
74923;HTU21D;64715;44.760;37.678;2022-11-20T06:23:45;15.78;90.73
74923;HTU21D;64715;44.760;37.678;2022-11-20T06:24:46;15.78;90.65
74923;HTU21D;64715;44.760;37.678;2022-11-20T06:25:47;15.78;90.66
74923;HTU21D;64715;44.760;37.678;2022-11-20T06:26:48;15.77;90.63
74923;HTU21D;64715;44.760;37.678;2022-11-20T06:27:49;15.76;90.61
74923;HTU21D;64715;44.760;37.678;2022-11-20T06:28:50;15.77;90.48